Rock Bridge, Tennessee
Current Conditions -  °F | °C
As of 10:53 PM on Friday 19 Dec 2014 (Local Time) from KBWG Reporting Station
Overcast Overcast  
Wind Chill: 34°   Ceiling: 10000
Heat Index: 34°   Visibility: 10mi
Dew Point: 25°   Wind: 3mph
Humidity: 70%   Direction: 60°ENE
Pressure: 30.27"   Gusts: NA
Location:  36.5084°N, 86.3071°W
Report Text: KBWG 200453Z AUTO 06003KT 10SM OVC100 01/M04 A3027 RMK AO2 SLP252 T00111039
Loading
Personal Weather Stations






























Interactive Weather Map New forecast layout! Learn more

10-Day Weather Forecast

Advertisements
Track Severe Weather on mobile